sensor_id;sensor_type;location;lat;lon;timestamp;temperature;humidity
14103;DHT22;7129;48.832;12.472;2022-11-04T00:02:34;10.60;99.90
14103;DHT22;7129;48.832;12.472;2022-11-04T00:07:37;10.70;99.90
14103;DHT22;7129;48.832;12.472;2022-11-04T00:12:56;10.70;99.90
14103;DHT22;7129;48.832;12.472;2022-11-04T00:17:58;10.70;99.90
14103;DHT22;7129;48.832;12.472;2022-11-04T00:23:01;10.50;99.90
14103;DHT22;7129;48.832;12.472;2022-11-04T00:28:21;10.60;99.90
14103;DHT22;7129;48.832;12.472;2022-11-04T00:33:40;10.60;99.90
14103;DHT22;7129;48.832;12.472;2022-11-04T00:38:43;10.60;99.90
14103;DHT22;7129;48.832;12.472;2022-11-04T00:43:45;10.60;99.90
14103;DHT22;7129;48.832;12.472;2022-11-04T00:48:47;10.70;99.90
14103;DHT22;7129;48.832;12.472;2022-11-04T00:53:51;10.80;99.90
14103;DHT22;7129;48.832;12.472;2022-11-04T00:58:54;10.70;99.90
14103;DHT22;7129;48.832;12.472;2022-11-04T01:03:56;10.80;99.90
14103;DHT22;7129;48.832;12.472;2022-11-04T01:09:02;10.90;99.90
14103;DHT22;7129;48.832;12.472;2022-11-04T01:14:05;10.90;99.90
14103;DHT22;7129;48.832;12.472;2022-11-04T01:19:07;11.00;99.90
14103;DHT22;7129;48.832;12.472;2022-11-04T01:24:10;11.00;99.90
14103;DHT22;7129;48.832;12.472;2022-11-04T01:29:12;11.10;99.90
14103;DHT22;7129;48.832;12.472;2022-11-04T01:34:14;11.20;99.90
14103;DHT22;7129;48.832;12.472;2022-11-04T01:39:17;11.30;99.90
14103;DHT22;7129;48.832;12.472;2022-11-04T01:50:08;11.30;99.90
14103;DHT22;7129;48.832;12.472;2022-11-04T01:55:15;11.30;99.90
14103;DHT22;7129;48.832;12.472;2022-11-04T02:00:18;11.20;99.90
14103;DHT22;7129;48.832;12.472;2022-11-04T02:05:20;11.10;99.90
14103;DHT22;7129;48.832;12.472;2022-11-04T02:10:25;11.00;99.90
14103;DHT22;7129;48.832;12.472;2022-11-04T02:15:34;11.10;99.90
14103;DHT22;7129;48.832;12.472;2022-11-04T02:26:40;11.20;99.90
14103;DHT22;7129;48.832;12.472;2022-11-04T02:31:56;11.10;99.90
14103;DHT22;7129;48.832;12.472;2022-11-04T02:37:06;11.10;99.90
14103;DHT22;7129;48.832;12.472;2022-11-04T02:42:14;11.00;99.90
14103;DHT22;7129;48.832;12.472;2022-11-04T02:47:22;11.00;99.90
14103;DHT22;7129;48.832;12.472;2022-11-04T02:52:31;11.00;99.90
14103;DHT22;7129;48.832;12.472;2022-11-04T02:57:35;11.00;99.90
14103;DHT22;7129;48.832;12.472;2022-11-04T03:02:42;10.90;99.90
14103;DHT22;7129;48.832;12.472;2022-11-04T03:07:46;11.00;99.90
14103;DHT22;7129;48.832;12.472;2022-11-04T03:12:52;11.00;99.90
14103;DHT22;7129;48.832;12.472;2022-11-04T03:18:01;11.00;99.90
14103;DHT22;7129;48.832;12.472;2022-11-04T03:23:04;10.90;99.90
14103;DHT22;7129;48.832;12.472;2022-11-04T03:28:25;10.80;99.90
14103;DHT22;7129;48.832;12.472;2022-11-04T03:33:36;10.80;99.90
14103;DHT22;7129;48.832;12.472;2022-11-04T03:38:39;10.80;99.90
14103;DHT22;7129;48.832;12.472;2022-11-04T03:43:41;10.90;99.90
14103;DHT22;7129;48.832;12.472;2022-11-04T03:48:45;11.00;99.90
14103;DHT22;7129;48.832;12.472;2022-11-04T03:53:47;10.70;99.90
14103;DHT22;7129;48.832;12.472;2022-11-04T03:58:58;10.90;99.90
14103;DHT22;7129;48.832;12.472;2022-11-04T04:04:11;10.90;99.90
14103;DHT22;7129;48.832;12.472;2022-11-04T04:09:19;10.80;99.90
14103;DHT22;7129;48.832;12.472;2022-11-04T04:14:24;10.70;99.90
14103;DHT22;7129;48.832;12.472;2022-11-04T04:19:45;10.80;99.90
14103;DHT22;7129;48.832;12.472;2022-11-04T04:24:50;10.80;99.90
14103;DHT22;7129;48.832;12.472;2022-11-04T04:30:12;10.70;99.90
14103;DHT22;7129;48.832;12.472;2022-11-04T04:35:16;10.80;99.90
14103;DHT22;7129;48.832;12.472;2022-11-04T04:40:38;10.80;99.90
14103;DHT22;7129;48.832;12.472;2022-11-04T04:45:57;10.70;99.90
14103;DHT22;7129;48.832;12.472;2022-11-04T04:51:01;10.70;99.90
14103;DHT22;7129;48.832;12.472;2022-11-04T04:56:03;10.60;99.90
14103;DHT22;7129;48.832;12.472;2022-11-04T05:01:05;10.70;99.90
14103;DHT22;7129;48.832;12.472;2022-11-04T05:06:09;10.70;99.90
14103;DHT22;7129;48.832;12.472;2022-11-04T05:11:11;10.70;99.90
14103;DHT22;7129;48.832;12.472;2022-11-04T05:16:13;10.90;99.90
14103;DHT22;7129;48.832;12.472;2022-11-04T05:21:17;10.80;99.90
14103;DHT22;7129;48.832;12.472;2022-11-04T05:26:19;10.90;99.90
14103;DHT22;7129;48.832;12.472;2022-11-04T05:31:21;10.70;99.90
14103;DHT22;7129;48.832;12.472;2022-11-04T05:36:24;10.70;99.90
14103;DHT22;7129;48.832;12.472;2022-11-04T05:41:26;10.80;99.90
14103;DHT22;7129;48.832;12.472;2022-11-04T05:46:28;10.70;99.90
14103;DHT22;7129;48.832;12.472;2022-11-04T05:51:32;10.90;99.90
14103;DHT22;7129;48.832;12.472;2022-11-04T05:56:34;10.70;99.90
14103;DHT22;7129;48.832;12.472;2022-11-04T06:01:37;10.80;99.90
14103;DHT22;7129;48.832;12.472;2022-11-04T06:06:41;10.80;99.90
14103;DHT22;7129;48.832;12.472;2022-11-04T06:11:43;10.90;99.90
14103;DHT22;7129;48.832;12.472;2022-11-04T06:16:46;10.80;99.90
14103;DHT22;7129;48.832;12.472;2022-11-04T06:21:49;10.80;99.90
14103;DHT22;7129;48.832;12.472;2022-11-04T06:26:51;10.80;99.90
14103;DHT22;7129;48.832;12.472;2022-11-04T06:31:53;10.90;99.90
14103;DHT22;7129;48.832;12.472;2022-11-04T06:36:56;10.90;99.90
14103;DHT22;7129;48.832;12.472;2022-11-04T06:41:58;10.80;99.90
14103;DHT22;7129;48.832;12.472;2022-11-04T06:47:00;10.80;99.90
14103;DHT22;7129;48.832;12.472;2022-11-04T06:52:03;10.80;99.90
14103;DHT22;7129;48.832;12.472;2022-11-04T06:57:07;10.80;99.90
14103;DHT22;7129;48.832;12.472;2022-11-04T07:02:09;10.70;99.90
14103;DHT22;7129;48.832;12.472;2022-11-04T07:07:13;10.50;99.90
14103;DHT22;7129;48.832;12.472;2022-11-04T07:12:15;10.50;99.90
14103;DHT22;7129;48.832;12.472;2022-11-04T07:17:17;10.40;99.90
14103;DHT22;7129;48.832;12.472;2022-11-04T07:22:21;10.30;99.90
14103;DHT22;7129;48.832;12.472;2022-11-04T07:27:23;10.20;99.90
14103;DHT22;7129;48.832;12.472;2022-11-04T07:32:25;10.20;99.90
14103;DHT22;7129;48.832;12.472;2022-11-04T07:37:28;10.20;99.90
14103;DHT22;7129;48.832;12.472;2022-11-04T07:42:30;10.20;99.90
14103;DHT22;7129;48.832;12.472;2022-11-04T07:47:32;10.30;99.90
14103;DHT22;7129;48.832;12.472;2022-11-04T07:52:35;10.30;99.90
14103;DHT22;7129;48.832;12.472;2022-11-04T07:57:37;10.20;99.90
14103;DHT22;7129;48.832;12.472;2022-11-04T08:02:39;10.20;99.90
14103;DHT22;7129;48.832;12.472;2022-11-04T08:07:42;10.30;99.90
14103;DHT22;7129;48.832;12.472;2022-11-04T08:12:45;10.40;99.90
14103;DHT22;7129;48.832;12.472;2022-11-04T08:17:47;10.40;99.90
14103;DHT22;7129;48.832;12.472;2022-11-04T08:22:50;10.30;99.90
14103;DHT22;7129;48.832;12.472;2022-11-04T08:27:52;10.30;99.90
14103;DHT22;7129;48.832;12.472;2022-11-04T08:32:54;10.30;99.90
14103;DHT22;7129;48.832;12.472;2022-11-04T08:37:57;10.30;99.90
14103;DHT22;7129;48.832;12.472;2022-11-04T08:42:59;10.20;99.90
14103;DHT22;7129;48.832;12.472;2022-11-04T08:48:01;10.20;99.90
14103;DHT22;7129;48.832;12.472;2022-11-04T08:53:05;10.30;99.90
14103;DHT22;7129;48.832;12.472;2022-11-04T08:58:07;10.40;99.90
14103;DHT22;7129;48.832;12.472;2022-11-04T09:03:08;10.40;99.90
14103;DHT22;7129;48.832;12.472;2022-11-04T09:08:12;10.20;99.90
14103;DHT22;7129;48.832;12.472;2022-11-04T09:13:15;10.50;99.90
14103;DHT22;7129;48.832;12.472;2022-11-04T09:18:17;10.30;99.90
14103;DHT22;7129;48.832;12.472;2022-11-04T09:23:20;10.50;99.90
14103;DHT22;7129;48.832;12.472;2022-11-04T09:28:22;10.40;99.90
14103;DHT22;7129;48.832;12.472;2022-11-04T09:33:25;10.50;99.90
14103;DHT22;7129;48.832;12.472;2022-11-04T09:38:28;10.60;99.90
14103;DHT22;7129;48.832;12.472;2022-11-04T09:43:38;10.70;99.90
14103;DHT22;7129;48.832;12.472;2022-11-04T09:48:46;10.80;99.90
14103;DHT22;7129;48.832;12.472;2022-11-04T09:53:52;10.70;99.90
14103;DHT22;7129;48.832;12.472;2022-11-04T09:58:55;10.70;99.90
14103;DHT22;7129;48.832;12.472;2022-11-04T10:09:33;10.80;99.90
14103;DHT22;7129;48.832;12.472;2022-11-04T10:14:53;10.80;99.90
14103;DHT22;7129;48.832;12.472;2022-11-04T10:20:02;10.80;99.90
14103;DHT22;7129;48.832;12.472;2022-11-04T10:25:20;10.80;99.90
14103;DHT22;7129;48.832;12.472;2022-11-04T10:30:24;10.80;99.90
14103;DHT22;7129;48.832;12.472;2022-11-04T10:35:30;10.80;99.90
14103;DHT22;7129;48.832;12.472;2022-11-04T10:40:39;10.80;99.90
14103;DHT22;7129;48.832;12.472;2022-11-04T10:45:47;10.80;99.90
14103;DHT22;7129;48.832;12.472;2022-11-04T10:50:55;10.70;99.90
14103;DHT22;7129;48.832;12.472;2022-11-04T10:56:03;10.70;99.90
14103;DHT22;7129;48.832;12.472;2022-11-04T11:01:22;10.70;99.90
14103;DHT22;7129;48.832;12.472;2022-11-04T11:06:27;10.70;99.90
14103;DHT22;7129;48.832;12.472;2022-11-04T11:11:42;10.70;99.90
14103;DHT22;7129;48.832;12.472;2022-11-04T11:16:46;10.60;99.90
14103;DHT22;7129;48.832;12.472;2022-11-04T11:21:49;10.70;99.90
14103;DHT22;7129;48.832;12.472;2022-11-04T11:26:55;10.70;99.90
14103;DHT22;7129;48.832;12.472;2022-11-04T11:31:57;10.80;99.90
14103;DHT22;7129;48.832;12.472;2022-11-04T11:37:01;10.80;99.90
14103;DHT22;7129;48.832;12.472;2022-11-04T11:42:07;10.80;99.90
14103;DHT22;7129;48.832;12.472;2022-11-04T11:47:19;10.80;99.90
14103;DHT22;7129;48.832;12.472;2022-11-04T11:52:30;10.70;99.90
14103;DHT22;7129;48.832;12.472;2022-11-04T11:57:41;10.70;99.90
14103;DHT22;7129;48.832;12.472;2022-11-04T12:02:49;10.70;99.90
14103;DHT22;7129;48.832;12.472;2022-11-04T12:07:59;10.70;99.90
14103;DHT22;7129;48.832;12.472;2022-11-04T12:13:12;10.70;99.90
14103;DHT22;7129;48.832;12.472;2022-11-04T12:18:38;10.60;99.90
14103;DHT22;7129;48.832;12.472;2022-11-04T12:23:48;10.60;99.90
14103;DHT22;7129;48.832;12.472;2022-11-04T12:29:08;10.60;99.90
14103;DHT22;7129;48.832;12.472;2022-11-04T12:34:23;10.50;99.90
14103;DHT22;7129;48.832;12.472;2022-11-04T12:39:47;10.60;99.90
14103;DHT22;7129;48.832;12.472;2022-11-04T12:45:04;10.50;99.90
14103;DHT22;7129;48.832;12.472;2022-11-04T12:55:37;10.40;99.90
14103;DHT22;7129;48.832;12.472;2022-11-04T13:00:48;10.50;99.90
14103;DHT22;7129;48.832;12.472;2022-11-04T13:05:56;10.50;99.90
14103;DHT22;7129;48.832;12.472;2022-11-04T13:11:06;10.50;99.90
14103;DHT22;7129;48.832;12.472;2022-11-04T13:16:23;10.40;99.90
14103;DHT22;7129;48.832;12.472;2022-11-04T13:21:29;10.40;99.90
14103;DHT22;7129;48.832;12.472;2022-11-04T13:26:33;10.30;99.90
14103;DHT22;7129;48.832;12.472;2022-11-04T13:31:46;10.20;99.90
14103;DHT22;7129;48.832;12.472;2022-11-04T13:36:57;10.20;99.90
14103;DHT22;7129;48.832;12.472;2022-11-04T13:47:45;10.10;99.90
14103;DHT22;7129;48.832;12.472;2022-11-04T13:52:49;10.10;99.90
14103;DHT22;7129;48.832;12.472;2022-11-04T13:57:53;10.10;99.90
14103;DHT22;7129;48.832;12.472;2022-11-04T14:02:58;10.00;99.90
14103;DHT22;7129;48.832;12.472;2022-11-04T14:08:08;10.00;99.90
14103;DHT22;7129;48.832;12.472;2022-11-04T14:25:00;10.00;99.90
14103;DHT22;7129;48.832;12.472;2022-11-04T14:30:03;10.00;99.90
14103;DHT22;7129;48.832;12.472;2022-11-04T14:35:06;10.00;99.90
14103;DHT22;7129;48.832;12.472;2022-11-04T14:40:23;10.00;99.90
14103;DHT22;7129;48.832;12.472;2022-11-04T14:45:37;10.00;99.90
14103;DHT22;7129;48.832;12.472;2022-11-04T14:50:44;10.10;99.90
14103;DHT22;7129;48.832;12.472;2022-11-04T14:56:02;10.00;99.90
14103;DHT22;7129;48.832;12.472;2022-11-04T15:01:04;10.00;99.90
14103;DHT22;7129;48.832;12.472;2022-11-04T15:06:09;9.90;99.90
14103;DHT22;7129;48.832;12.472;2022-11-04T15:11:14;10.00;99.90
14103;DHT22;7129;48.832;12.472;2022-11-04T15:16:18;9.90;99.90
14103;DHT22;7129;48.832;12.472;2022-11-04T15:21:21;9.90;99.90
14103;DHT22;7129;48.832;12.472;2022-11-04T15:26:26;9.90;99.90
14103;DHT22;7129;48.832;12.472;2022-11-04T15:31:29;9.90;99.90
14103;DHT22;7129;48.832;12.472;2022-11-04T15:36:34;9.90;99.90
14103;DHT22;7129;48.832;12.472;2022-11-04T15:41:40;9.90;99.90
14103;DHT22;7129;48.832;12.472;2022-11-04T15:47:02;10.00;99.90
14103;DHT22;7129;48.832;12.472;2022-11-04T15:52:05;10.00;99.90
14103;DHT22;7129;48.832;12.472;2022-11-04T15:57:14;9.90;99.90
14103;DHT22;7129;48.832;12.472;2022-11-04T16:02:23;9.90;99.90
14103;DHT22;7129;48.832;12.472;2022-11-04T16:07:29;10.00;99.90
14103;DHT22;7129;48.832;12.472;2022-11-04T16:12:36;10.00;99.90
14103;DHT22;7129;48.832;12.472;2022-11-04T16:17:42;10.20;99.90
14103;DHT22;7129;48.832;12.472;2022-11-04T16:22:45;10.20;99.90
14103;DHT22;7129;48.832;12.472;2022-11-04T16:27:48;10.10;99.90
14103;DHT22;7129;48.832;12.472;2022-11-04T16:32:52;10.20;99.90
14103;DHT22;7129;48.832;12.472;2022-11-04T16:37:54;10.10;99.90
14103;DHT22;7129;48.832;12.472;2022-11-04T16:42:58;10.00;99.90
14103;DHT22;7129;48.832;12.472;2022-11-04T16:48:00;10.10;99.90
14103;DHT22;7129;48.832;12.472;2022-11-04T16:53:02;10.00;99.90
14103;DHT22;7129;48.832;12.472;2022-11-04T16:58:05;10.00;99.90
14103;DHT22;7129;48.832;12.472;2022-11-04T17:03:14;9.90;99.90
14103;DHT22;7129;48.832;12.472;2022-11-04T17:08:20;9.90;99.90
14103;DHT22;7129;48.832;12.472;2022-11-04T17:13:23;9.90;99.90
14103;DHT22;7129;48.832;12.472;2022-11-04T17:18:28;9.90;99.90
14103;DHT22;7129;48.832;12.472;2022-11-04T17:23:30;9.90;99.90
14103;DHT22;7129;48.832;12.472;2022-11-04T17:28:33;9.90;99.90
14103;DHT22;7129;48.832;12.472;2022-11-04T17:33:35;9.90;99.90
14103;DHT22;7129;48.832;12.472;2022-11-04T17:38:37;9.90;99.90
14103;DHT22;7129;48.832;12.472;2022-11-04T17:43:40;9.90;99.90
14103;DHT22;7129;48.832;12.472;2022-11-04T17:48:59;9.90;99.90
14103;DHT22;7129;48.832;12.472;2022-11-04T17:54:01;9.90;99.90
14103;DHT22;7129;48.832;12.472;2022-11-04T17:59:05;9.90;99.90
14103;DHT22;7129;48.832;12.472;2022-11-04T18:04:11;9.90;99.90
14103;DHT22;7129;48.832;12.472;2022-11-04T18:09:14;9.90;99.90
14103;DHT22;7129;48.832;12.472;2022-11-04T18:14:18;9.80;99.90
14103;DHT22;7129;48.832;12.472;2022-11-04T18:19:21;9.90;99.90
14103;DHT22;7129;48.832;12.472;2022-11-04T18:24:23;9.80;99.90
14103;DHT22;7129;48.832;12.472;2022-11-04T18:29:27;9.80;99.90
14103;DHT22;7129;48.832;12.472;2022-11-04T18:34:28;9.90;99.90
14103;DHT22;7129;48.832;12.472;2022-11-04T18:39:30;9.80;99.90
14103;DHT22;7129;48.832;12.472;2022-11-04T18:44:34;9.80;99.90
14103;DHT22;7129;48.832;12.472;2022-11-04T18:49:36;9.70;99.90
14103;DHT22;7129;48.832;12.472;2022-11-04T18:54:38;9.70;99.90
14103;DHT22;7129;48.832;12.472;2022-11-04T18:59:41;9.70;99.90
14103;DHT22;7129;48.832;12.472;2022-11-04T19:04:43;9.70;99.90
14103;DHT22;7129;48.832;12.472;2022-11-04T19:09:45;9.70;99.90
14103;DHT22;7129;48.832;12.472;2022-11-04T19:14:48;9.60;99.90
14103;DHT22;7129;48.832;12.472;2022-11-04T19:19:50;9.60;99.90
14103;DHT22;7129;48.832;12.472;2022-11-04T19:24:52;9.60;99.90
14103;DHT22;7129;48.832;12.472;2022-11-04T19:29:55;9.60;99.90
14103;DHT22;7129;48.832;12.472;2022-11-04T19:34:57;9.50;99.90
14103;DHT22;7129;48.832;12.472;2022-11-04T19:39:59;9.50;99.90
14103;DHT22;7129;48.832;12.472;2022-11-04T19:45:03;9.50;99.90
14103;DHT22;7129;48.832;12.472;2022-11-04T19:50:05;9.40;99.90
14103;DHT22;7129;48.832;12.472;2022-11-04T19:55:08;9.40;99.90
14103;DHT22;7129;48.832;12.472;2022-11-04T20:00:12;9.40;99.90
14103;DHT22;7129;48.832;12.472;2022-11-04T20:05:16;9.40;99.90
14103;DHT22;7129;48.832;12.472;2022-11-04T20:10:18;9.20;99.90
14103;DHT22;7129;48.832;12.472;2022-11-04T20:15:22;9.30;99.90
14103;DHT22;7129;48.832;12.472;2022-11-04T20:20:25;9.30;99.90
14103;DHT22;7129;48.832;12.472;2022-11-04T20:25:27;9.30;99.90
14103;DHT22;7129;48.832;12.472;2022-11-04T20:30:31;9.30;99.90
14103;DHT22;7129;48.832;12.472;2022-11-04T20:35:35;9.30;99.90
14103;DHT22;7129;48.832;12.472;2022-11-04T20:40:37;9.30;99.90
14103;DHT22;7129;48.832;12.472;2022-11-04T20:45:41;9.30;99.90
14103;DHT22;7129;48.832;12.472;2022-11-04T20:50:42;9.30;99.90
14103;DHT22;7129;48.832;12.472;2022-11-04T20:55:44;9.30;99.90
14103;DHT22;7129;48.832;12.472;2022-11-04T21:00:49;9.30;99.90
14103;DHT22;7129;48.832;12.472;2022-11-04T21:05:52;9.20;99.90
14103;DHT22;7129;48.832;12.472;2022-11-04T21:10:55;9.30;99.90
14103;DHT22;7129;48.832;12.472;2022-11-04T21:15:59;9.30;99.90
14103;DHT22;7129;48.832;12.472;2022-11-04T21:21:02;9.30;99.90
14103;DHT22;7129;48.832;12.472;2022-11-04T21:26:06;9.30;99.90
14103;DHT22;7129;48.832;12.472;2022-11-04T21:31:11;9.20;99.90
14103;DHT22;7129;48.832;12.472;2022-11-04T21:36:13;9.10;99.90
14103;DHT22;7129;48.832;12.472;2022-11-04T21:41:16;9.00;99.90
14103;DHT22;7129;48.832;12.472;2022-11-04T21:46:20;9.00;99.90
14103;DHT22;7129;48.832;12.472;2022-11-04T21:51:24;8.80;99.90
14103;DHT22;7129;48.832;12.472;2022-11-04T21:56:29;8.80;99.90
14103;DHT22;7129;48.832;12.472;2022-11-04T22:01:33;8.70;99.90
14103;DHT22;7129;48.832;12.472;2022-11-04T22:06:35;8.70;99.90
14103;DHT22;7129;48.832;12.472;2022-11-04T22:11:38;8.70;99.90
14103;DHT22;7129;48.832;12.472;2022-11-04T22:16:41;8.80;99.90
14103;DHT22;7129;48.832;12.472;2022-11-04T22:21:44;8.80;99.90
14103;DHT22;7129;48.832;12.472;2022-11-04T22:26:46;8.80;99.90
14103;DHT22;7129;48.832;12.472;2022-11-04T22:31:49;8.90;99.90
14103;DHT22;7129;48.832;12.472;2022-11-04T22:36:51;8.90;99.90
14103;DHT22;7129;48.832;12.472;2022-11-04T22:41:53;8.80;99.90
14103;DHT22;7129;48.832;12.472;2022-11-04T22:46:56;8.70;99.90
14103;DHT22;7129;48.832;12.472;2022-11-04T22:51:58;8.70;99.90
14103;DHT22;7129;48.832;12.472;2022-11-04T22:57:00;8.70;99.90
14103;DHT22;7129;48.832;12.472;2022-11-04T23:02:03;8.60;99.90
14103;DHT22;7129;48.832;12.472;2022-11-04T23:07:05;8.60;99.90
14103;DHT22;7129;48.832;12.472;2022-11-04T23:12:07;8.60;99.90
14103;DHT22;7129;48.832;12.472;2022-11-04T23:17:29;8.50;99.90
14103;DHT22;7129;48.832;12.472;2022-11-04T23:22:48;8.50;99.90
14103;DHT22;7129;48.832;12.472;2022-11-04T23:28:07;8.50;99.90
14103;DHT22;7129;48.832;12.472;2022-11-04T23:33:28;8.40;99.90
14103;DHT22;7129;48.832;12.472;2022-11-04T23:38:43;8.40;99.90
14103;DHT22;7129;48.832;12.472;2022-11-04T23:43:45;8.30;99.90
14103;DHT22;7129;48.832;12.472;2022-11-04T23:48:49;8.30;99.90
14103;DHT22;7129;48.832;12.472;2022-11-04T23:54:22;8.30;99.90
14103;DHT22;7129;48.832;12.472;2022-11-04T23:59:42;8.30;99.90
